createdAt,value
2022-12-25T00:01:45.181Z,6.20
2022-12-25T00:04:12.669Z,6.20
2022-12-25T00:06:40.120Z,6.20
2022-12-25T00:09:07.581Z,6.20
2022-12-25T00:11:35.231Z,6.20
2022-12-25T00:14:02.888Z,6.20
2022-12-25T00:16:30.417Z,6.10
2022-12-25T00:18:59.211Z,6.10
2022-12-25T00:21:26.615Z,6.10
2022-12-25T00:23:56.811Z,6.00
2022-12-25T00:26:25.958Z,6.00
2022-12-25T00:28:55.526Z,5.90
2022-12-25T00:31:24.779Z,5.80
2022-12-25T00:33:53.132Z,5.80
2022-12-25T00:36:22.367Z,5.90
2022-12-25T00:38:50.049Z,5.90
2022-12-25T00:41:40.299Z,5.90
2022-12-25T00:44:09.750Z,5.90
2022-12-25T00:46:37.771Z,5.90
2022-12-25T00:49:05.466Z,6.00
2022-12-25T00:51:33.665Z,6.00
2022-12-25T00:54:01.230Z,6.00
2022-12-25T00:56:28.711Z,5.90
2022-12-25T00:58:56.362Z,5.80
2022-12-25T01:01:23.946Z,5.70
2022-12-25T01:03:51.446Z,5.60
2022-12-25T01:06:18.872Z,5.70
2022-12-25T01:09:04.636Z,5.70
2022-12-25T01:11:32.439Z,5.70
2022-12-25T01:14:00.003Z,5.70
2022-12-25T01:16:27.988Z,5.60
2022-12-25T01:18:55.936Z,5.50
2022-12-25T01:21:23.698Z,5.50
2022-12-25T01:23:52.728Z,5.30
2022-12-25T01:26:23.216Z,5.10
2022-12-25T01:28:51.537Z,5.00
2022-12-25T01:31:22.946Z,4.90
2022-12-25T01:33:51.097Z,4.90
2022-12-25T01:36:25.300Z,4.90
2022-12-25T01:38:54.864Z,4.90
2022-12-25T01:41:24.849Z,4.90
2022-12-25T01:44:28.632Z,4.90
2022-12-25T01:46:56.040Z,4.90
2022-12-25T01:49:26.145Z,4.80
2022-12-25T01:52:01.627Z,4.90
2022-12-25T01:54:42.265Z,4.90
2022-12-25T01:57:24.406Z,4.90
2022-12-25T01:59:52.779Z,4.80
2022-12-25T02:02:21.196Z,4.90
2022-12-25T02:05:00.327Z,4.90
2022-12-25T02:07:30.361Z,4.80
2022-12-25T02:09:57.783Z,4.70
2022-12-25T02:12:29.776Z,4.70
2022-12-25T02:15:05.829Z,4.60
2022-12-25T02:17:57.524Z,4.60
2022-12-25T02:20:57.091Z,4.60
2022-12-25T02:23:55.889Z,4.70
2022-12-25T02:27:06.128Z,4.90
2022-12-25T02:29:48.051Z,4.90
2022-12-25T02:32:29.601Z,4.90
2022-12-25T02:35:10.732Z,4.80
2022-12-25T02:38:05.210Z,4.70
2022-12-25T02:40:42.304Z,4.70
2022-12-25T02:43:35.541Z,4.70
2022-12-25T02:46:26.791Z,4.60
2022-12-25T02:49:20.264Z,4.60
2022-12-25T02:52:15.039Z,4.60
2022-12-25T02:55:08.067Z,4.50
2022-12-25T02:58:04.259Z,4.40
2022-12-25T03:00:58.405Z,4.40
2022-12-25T03:03:50.274Z,4.30
2022-12-25T03:06:39.488Z,4.30
2022-12-25T03:09:30.271Z,4.30
2022-12-25T03:12:11.624Z,4.30
2022-12-25T03:14:58.571Z,4.30
2022-12-25T03:17:26.352Z,4.40
2022-12-25T03:20:12.557Z,4.40
2022-12-25T03:23:05.627Z,4.30
2022-12-25T03:25:52.011Z,4.10
2022-12-25T03:28:19.438Z,4.20
2022-12-25T03:31:14.623Z,4.20
2022-12-25T03:34:54.590Z,4.10
2022-12-25T03:38:09.945Z,4.00
2022-12-25T03:41:15.608Z,4.10
2022-12-25T03:44:40.805Z,4.10
2022-12-25T03:47:35.458Z,4.10
2022-12-25T03:50:32.486Z,4.10
2022-12-25T03:53:24.647Z,4.30
2022-12-25T03:56:12.398Z,4.40
2022-12-25T03:59:21.105Z,4.30
2022-12-25T04:02:10.335Z,4.30
2022-12-25T04:04:56.981Z,4.30
2022-12-25T04:07:43.182Z,4.30
2022-12-25T04:10:29.517Z,4.30
2022-12-25T04:13:15.646Z,4.20
2022-12-25T04:16:01.587Z,4.20
2022-12-25T04:18:47.690Z,3.90
2022-12-25T04:21:33.989Z,3.70
2022-12-25T04:24:20.229Z,3.60
2022-12-25T04:27:06.499Z,3.40
2022-12-25T04:29:52.658Z,3.60
2022-12-25T04:32:38.414Z,3.60
2022-12-25T04:35:24.693Z,3.50
2022-12-25T04:37:52.135Z,3.30
2022-12-25T04:40:20.446Z,3.10
2022-12-25T04:42:50.667Z,2.90
2022-12-25T04:45:18.418Z,3.00
2022-12-25T04:47:45.855Z,3.10
2022-12-25T04:50:13.357Z,3.10
2022-12-25T04:52:41.937Z,3.10
2022-12-25T04:55:11.174Z,3.30
2022-12-25T04:57:38.907Z,3.50
2022-12-25T05:00:07.881Z,3.50
2022-12-25T05:02:35.581Z,3.60
2022-12-25T05:05:03.424Z,3.50
2022-12-25T05:07:30.825Z,3.40
2022-12-25T05:09:58.609Z,3.20
2022-12-25T05:12:26.081Z,3.10
2022-12-25T05:14:53.508Z,3.20
2022-12-25T05:17:21.005Z,2.90
2022-12-25T05:19:48.548Z,2.60
2022-12-25T05:22:16.032Z,2.30
2022-12-25T05:24:43.518Z,2.00
2022-12-25T05:27:10.900Z,1.90
2022-12-25T05:29:38.330Z,1.80
2022-12-25T05:32:05.988Z,1.90
2022-12-25T05:34:33.403Z,2.00
2022-12-25T05:37:00.955Z,2.00
2022-12-25T05:39:28.427Z,2.00
2022-12-25T05:41:56.014Z,2.10
2022-12-25T05:44:23.916Z,2.10
2022-12-25T05:46:51.361Z,2.00
2022-12-25T05:49:18.823Z,2.00
2022-12-25T05:51:46.231Z,2.10
2022-12-25T05:54:13.623Z,2.20
2022-12-25T05:56:41.040Z,2.10
2022-12-25T05:59:08.446Z,2.10
2022-12-25T06:01:35.994Z,2.10
2022-12-25T06:04:08.408Z,2.00
2022-12-25T06:06:39.446Z,2.00
2022-12-25T06:09:06.981Z,1.90
2022-12-25T06:11:34.426Z,2.00
2022-12-25T06:14:01.951Z,2.00
2022-12-25T06:16:35.570Z,2.00
2022-12-25T06:19:05.307Z,1.90
2022-12-25T06:21:32.988Z,1.90
2022-12-25T06:24:01.644Z,2.00
2022-12-25T06:26:29.312Z,1.90
2022-12-25T06:28:56.754Z,1.90
2022-12-25T06:31:25.013Z,1.80
2022-12-25T06:33:52.485Z,1.80
2022-12-25T06:36:26.807Z,1.80
2022-12-25T06:38:54.657Z,1.80
2022-12-25T06:41:25.959Z,1.90
2022-12-25T06:43:59.545Z,1.80
2022-12-25T06:46:29.597Z,1.70
2022-12-25T06:48:59.145Z,1.70
2022-12-25T06:51:32.225Z,1.60
2022-12-25T06:54:03.225Z,1.70
2022-12-25T06:56:31.650Z,1.60
2022-12-25T06:59:02.866Z,1.50
2022-12-25T07:01:34.524Z,1.50
2022-12-25T07:04:08.035Z,1.60
2022-12-25T07:06:35.431Z,1.60
2022-12-25T07:09:03.441Z,1.60
2022-12-25T07:11:31.192Z,1.60
2022-12-25T07:13:58.609Z,1.50
2022-12-25T07:16:26.097Z,1.50
2022-12-25T07:18:53.572Z,1.60
2022-12-25T07:21:21.929Z,1.50
2022-12-25T07:23:50.409Z,1.50
2022-12-25T07:26:18.234Z,1.50
2022-12-25T07:28:45.807Z,1.60
2022-12-25T07:31:16.846Z,1.50
2022-12-25T07:33:45.362Z,1.50
2022-12-25T07:36:14.493Z,1.60
2022-12-25T07:38:42.962Z,1.60
2022-12-25T07:41:13.235Z,1.60
2022-12-25T07:43:41.133Z,1.60
2022-12-25T07:46:09.679Z,1.50
2022-12-25T07:48:37.808Z,1.40
2022-12-25T07:51:08.740Z,1.40
2022-12-25T07:53:36.870Z,1.40
2022-12-25T07:56:17.291Z,1.30
2022-12-25T07:58:45.691Z,1.50
2022-12-25T08:01:27.184Z,1.60
2022-12-25T08:03:58.105Z,1.60
2022-12-25T08:06:30.852Z,1.60
2022-12-25T08:09:06.349Z,1.60
2022-12-25T08:11:33.848Z,1.70
2022-12-25T08:14:01.365Z,1.80
2022-12-25T08:16:28.855Z,1.80
2022-12-25T08:18:56.382Z,1.80
2022-12-25T08:21:23.842Z,1.80
2022-12-25T08:23:51.322Z,1.90
2022-12-25T08:26:23.579Z,1.90
2022-12-25T08:28:51.940Z,1.90
2022-12-25T08:31:27.212Z,1.90
2022-12-25T08:33:58.317Z,2.00
2022-12-25T08:36:26.307Z,2.10
2022-12-25T08:39:00.294Z,2.20
2022-12-25T08:41:30.300Z,2.20
2022-12-25T08:43:57.887Z,2.20
2022-12-25T08:46:25.529Z,2.20
2022-12-25T08:48:53.151Z,2.20
2022-12-25T08:51:22.894Z,2.20
2022-12-25T08:53:53.986Z,2.20
2022-12-25T08:56:21.464Z,2.30
2022-12-25T08:58:48.898Z,2.30
2022-12-25T09:01:16.473Z,2.40
2022-12-25T09:03:44.233Z,2.40
2022-12-25T09:06:16.904Z,2.50
2022-12-25T09:08:49.135Z,2.60
2022-12-25T09:11:19.538Z,2.60
2022-12-25T09:13:47.597Z,2.60
2022-12-25T09:16:20.442Z,2.60
2022-12-25T09:18:48.084Z,2.60
2022-12-25T09:21:16.758Z,2.70
2022-12-25T09:23:44.246Z,2.80
2022-12-25T09:26:15.672Z,2.90
2022-12-25T09:28:50.323Z,3.00
2022-12-25T09:31:18.936Z,3.20
2022-12-25T09:33:46.414Z,4.10
2022-12-25T09:36:13.956Z,4.60
2022-12-25T09:38:41.499Z,4.80
2022-12-25T09:41:46.556Z,4.80
2022-12-25T09:44:24.359Z,5.00
2022-12-25T09:46:57.173Z,5.20
2022-12-25T09:49:36.381Z,5.00
2022-12-25T09:52:45.927Z,5.10
2022-12-25T09:55:21.230Z,5.30
2022-12-25T09:57:54.960Z,5.70
2022-12-25T10:00:29.468Z,5.90
2022-12-25T10:03:11.400Z,6.00
2022-12-25T10:06:15.582Z,6.20
2022-12-25T10:09:13.571Z,6.40
2022-12-25T10:12:24.152Z,6.70
2022-12-25T10:15:04.339Z,7.10
2022-12-25T10:17:44.166Z,7.30
2022-12-25T10:20:48.343Z,7.40
2022-12-25T10:23:24.595Z,7.40
2022-12-25T10:25:54.144Z,7.40
2022-12-25T10:28:40.253Z,7.50
2022-12-25T10:31:26.836Z,7.80
2022-12-25T10:33:54.660Z,7.90
2022-12-25T10:36:27.492Z,8.20
2022-12-25T10:38:56.613Z,8.40
2022-12-25T10:41:41.006Z,8.50
2022-12-25T10:44:24.742Z,8.60
2022-12-25T10:47:01.468Z,8.70
2022-12-25T10:49:38.979Z,8.60
2022-12-25T10:52:28.736Z,8.50
2022-12-25T10:54:56.440Z,8.60
2022-12-25T10:57:26.724Z,8.70
2022-12-25T10:59:57.746Z,8.90
2022-12-25T11:02:30.320Z,9.10
2022-12-25T11:05:32.227Z,9.10
2022-12-25T11:08:02.367Z,9.40
2022-12-25T11:10:44.253Z,9.50
2022-12-25T11:13:49.328Z,9.50
2022-12-25T11:16:38.241Z,9.50
2022-12-25T11:19:30.178Z,9.60
2022-12-25T11:22:01.679Z,9.40
2022-12-25T11:24:32.542Z,9.40
2022-12-25T11:27:05.033Z,9.60
2022-12-25T11:29:48.018Z,9.60
2022-12-25T11:32:39.681Z,9.70
2022-12-25T11:35:18.453Z,9.90
2022-12-25T11:37:50.417Z,9.90
2022-12-25T11:40:27.271Z,10.00
2022-12-25T11:43:09.838Z,9.90
2022-12-25T11:45:43.726Z,9.90
2022-12-25T11:48:46.329Z,10.00
2022-12-25T11:51:15.573Z,10.20
2022-12-25T11:53:56.616Z,10.40
2022-12-25T11:56:28.755Z,10.40
2022-12-25T11:59:03.836Z,10.50
2022-12-25T12:01:38.681Z,10.40
2022-12-25T12:04:29.484Z,10.60
2022-12-25T12:07:24.772Z,10.70
2022-12-25T12:09:58.732Z,10.70
2022-12-25T12:12:57.850Z,10.80
2022-12-25T12:15:45.545Z,11.00
2022-12-25T12:18:28.186Z,11.10
2022-12-25T12:21:16.811Z,11.20
2022-12-25T12:24:21.856Z,11.40
2022-12-25T12:27:07.154Z,11.70
2022-12-25T12:29:45.111Z,11.90
2022-12-25T12:32:38.632Z,12.20
2022-12-25T12:35:16.281Z,12.50
2022-12-25T12:37:49.536Z,12.80
2022-12-25T12:40:45.359Z,13.00
2022-12-25T12:43:47.162Z,13.20
2022-12-25T12:46:32.078Z,13.20
2022-12-25T12:49:22.640Z,13.20
2022-12-25T12:51:51.084Z,13.20
2022-12-25T12:54:26.192Z,13.30
2022-12-25T12:57:06.143Z,13.30
2022-12-25T12:59:47.150Z,13.50
2022-12-25T13:03:14.666Z,13.50
2022-12-25T13:05:56.020Z,13.60
2022-12-25T13:08:45.279Z,13.80
2022-12-25T13:11:36.473Z,13.60
2022-12-25T13:14:05.388Z,14.00
2022-12-25T13:16:40.594Z,14.10
2022-12-25T13:19:23.475Z,14.00
2022-12-25T13:22:01.337Z,13.50
2022-12-25T13:24:33.478Z,12.50
2022-12-25T13:27:01.803Z,11.80
2022-12-25T13:29:39.127Z,11.30
2022-12-25T13:32:20.528Z,10.90
2022-12-25T13:34:50.176Z,10.60
2022-12-25T13:37:22.017Z,10.30
2022-12-25T13:40:28.503Z,10.10
2022-12-25T13:43:01.356Z,9.70
2022-12-25T13:45:31.129Z,9.30
2022-12-25T13:48:10.258Z,9.30
2022-12-25T13:50:37.974Z,9.50
2022-12-25T13:53:17.694Z,10.10
2022-12-25T13:55:52.732Z,10.50
2022-12-25T13:58:29.335Z,10.40
2022-12-25T14:00:59.381Z,10.00
2022-12-25T14:03:42.921Z,9.60
2022-12-25T14:06:33.193Z,9.20
2022-12-25T14:09:00.920Z,8.70
2022-12-25T14:11:31.455Z,8.40
2022-12-25T14:14:04.444Z,8.30
2022-12-25T14:16:32.068Z,8.10
2022-12-25T14:19:02.639Z,8.00
2022-12-25T14:21:41.962Z,7.80
2022-12-25T14:24:16.960Z,7.60
2022-12-25T14:26:44.659Z,7.50
2022-12-25T14:29:19.093Z,7.40
2022-12-25T14:31:48.442Z,7.40
2022-12-25T14:34:21.589Z,7.30
2022-12-25T14:36:51.014Z,7.20
2022-12-25T14:39:37.309Z,7.20
2022-12-25T14:42:26.572Z,7.10
2022-12-25T14:45:31.009Z,7.10
2022-12-25T14:48:04.346Z,6.90
2022-12-25T14:50:39.667Z,6.70
2022-12-25T14:53:21.560Z,6.60
2022-12-25T14:55:52.495Z,6.50
2022-12-25T14:58:27.647Z,6.40
2022-12-25T15:01:01.360Z,6.40
2022-12-25T15:03:37.092Z,6.50
2022-12-25T15:06:11.644Z,6.50
2022-12-25T15:08:40.823Z,6.50
2022-12-25T15:11:09.609Z,6.50
2022-12-25T15:13:37.052Z,6.50
2022-12-25T15:16:14.768Z,6.50
2022-12-25T15:18:45.132Z,6.50
2022-12-25T15:21:39.170Z,6.50
2022-12-25T15:24:13.506Z,6.50
2022-12-25T15:26:41.614Z,6.50
2022-12-25T15:29:09.487Z,6.40
2022-12-25T15:31:39.685Z,6.30
2022-12-25T15:34:21.085Z,6.30
2022-12-25T15:36:49.133Z,6.30
2022-12-25T15:39:16.519Z,6.30
2022-12-25T15:42:02.497Z,6.30
2022-12-25T15:44:30.413Z,6.30
2022-12-25T15:46:58.056Z,6.20
2022-12-25T15:49:25.438Z,6.20
2022-12-25T15:51:52.830Z,6.20
2022-12-25T15:54:20.515Z,6.20
2022-12-25T15:56:57.456Z,6.10
2022-12-25T15:59:25.588Z,6.10
2022-12-25T16:01:57.089Z,6.00
2022-12-25T16:04:26.711Z,6.00
2022-12-25T16:06:56.371Z,6.10
2022-12-25T16:09:24.077Z,6.20
2022-12-25T16:11:51.542Z,6.20
2022-12-25T16:14:19.752Z,6.10
2022-12-25T16:16:47.212Z,6.10
2022-12-25T16:19:14.656Z,6.10
2022-12-25T16:21:45.576Z,6.00
2022-12-25T16:24:14.252Z,6.10
2022-12-25T16:26:43.383Z,6.10
2022-12-25T16:29:11.466Z,6.10
2022-12-25T16:31:40.156Z,6.00
2022-12-25T16:34:08.957Z,6.00
2022-12-25T16:36:36.916Z,6.00
2022-12-25T16:39:05.752Z,6.00
2022-12-25T16:41:33.491Z,6.00
2022-12-25T16:44:09.478Z,5.90
2022-12-25T16:46:38.234Z,5.90
2022-12-25T16:49:05.990Z,5.80
2022-12-25T16:51:33.427Z,5.80
2022-12-25T16:54:01.065Z,5.70
2022-12-25T16:56:30.126Z,5.70
2022-12-25T16:58:58.835Z,5.70
2022-12-25T17:01:26.737Z,5.80
2022-12-25T17:03:54.303Z,5.70
2022-12-25T17:06:28.508Z,5.70
2022-12-25T17:09:02.400Z,5.70
2022-12-25T17:11:30.879Z,5.60
2022-12-25T17:14:02.261Z,5.60
2022-12-25T17:16:36.318Z,5.70
2022-12-25T17:19:11.307Z,5.70
2022-12-25T17:21:38.916Z,5.70
2022-12-25T17:24:07.375Z,5.70
2022-12-25T17:26:34.966Z,5.70
2022-12-25T17:29:02.729Z,5.70
2022-12-25T17:31:30.596Z,5.70
2022-12-25T17:34:01.619Z,5.60
2022-12-25T17:36:29.697Z,5.70
2022-12-25T17:38:59.922Z,5.70
2022-12-25T17:41:27.929Z,5.70
2022-12-25T17:43:55.412Z,5.70
2022-12-25T17:46:29.349Z,5.60
2022-12-25T17:48:59.462Z,5.60
2022-12-25T17:51:29.513Z,5.50
2022-12-25T17:54:03.292Z,5.50
2022-12-25T17:56:31.842Z,5.50
2022-12-25T17:59:03.703Z,5.50
2022-12-25T18:01:31.282Z,5.50
2022-12-25T18:04:00.749Z,5.50
2022-12-25T18:06:29.745Z,5.50
2022-12-25T18:08:59.042Z,5.50
2022-12-25T18:11:29.457Z,5.50
2022-12-25T18:13:58.430Z,5.50
2022-12-25T18:16:27.358Z,5.50
2022-12-25T18:18:55.181Z,5.50
2022-12-25T18:21:23.608Z,5.50
2022-12-25T18:23:51.471Z,5.40
2022-12-25T18:26:20.799Z,5.40
2022-12-25T18:28:50.011Z,5.40
2022-12-25T18:31:27.335Z,5.30
2022-12-25T18:33:57.337Z,5.40
2022-12-25T18:36:27.895Z,5.40
2022-12-25T18:38:56.242Z,5.30
2022-12-25T18:41:24.421Z,5.30
2022-12-25T18:43:55.689Z,5.40
2022-12-25T18:46:25.461Z,5.40
2022-12-25T18:48:55.728Z,5.30
2022-12-25T18:51:23.637Z,5.40
2022-12-25T18:53:51.622Z,5.30
2022-12-25T18:56:19.239Z,5.40
2022-12-25T18:58:48.177Z,5.30
2022-12-25T19:01:18.501Z,5.40
2022-12-25T19:03:46.552Z,5.40
2022-12-25T19:06:25.977Z,5.40
2022-12-25T19:08:54.894Z,5.40
2022-12-25T19:11:23.078Z,5.40
2022-12-25T19:13:50.559Z,5.40
2022-12-25T19:16:18.411Z,5.30
2022-12-25T19:18:46.081Z,5.40
2022-12-25T19:21:13.705Z,5.40
2022-12-25T19:23:41.222Z,5.40
2022-12-25T19:26:09.878Z,5.40
2022-12-25T19:28:38.496Z,5.50
2022-12-25T19:31:08.130Z,5.50
2022-12-25T19:33:38.342Z,5.50
2022-12-25T19:36:11.540Z,5.50
2022-12-25T19:38:39.283Z,5.50
2022-12-25T19:41:16.749Z,5.60
2022-12-25T19:43:47.864Z,5.60
2022-12-25T19:46:19.926Z,5.60
2022-12-25T19:48:47.879Z,5.60
2022-12-25T19:51:27.970Z,5.60
2022-12-25T19:53:59.079Z,5.60
2022-12-25T19:56:29.340Z,5.50
2022-12-25T19:58:58.014Z,5.50
2022-12-25T20:01:30.120Z,5.50
2022-12-25T20:03:58.132Z,5.40
2022-12-25T20:06:32.711Z,5.40
2022-12-25T20:09:11.656Z,5.40
2022-12-25T20:11:39.912Z,5.30
2022-12-25T20:14:08.873Z,5.20
2022-12-25T20:16:39.940Z,5.20
2022-12-25T20:19:07.751Z,5.10
2022-12-25T20:21:35.208Z,5.10
2022-12-25T20:24:03.409Z,5.00
2022-12-25T20:26:32.241Z,5.10
2022-12-25T20:29:00.150Z,5.10
2022-12-25T20:31:33.836Z,5.10
2022-12-25T20:34:07.993Z,5.10
2022-12-25T20:36:37.570Z,5.10
2022-12-25T20:39:11.825Z,5.10
2022-12-25T20:41:40.528Z,5.10
2022-12-25T20:44:10.441Z,5.20
2022-12-25T20:46:38.249Z,5.10
2022-12-25T20:49:06.092Z,5.10
2022-12-25T20:51:33.709Z,5.10
2022-12-25T20:54:01.734Z,5.10
2022-12-25T20:56:30.396Z,5.20
2022-12-25T20:58:59.904Z,5.20
2022-12-25T21:01:30.346Z,5.20
2022-12-25T21:03:58.831Z,5.20
2022-12-25T21:06:26.693Z,5.20
2022-12-25T21:08:54.322Z,5.20
2022-12-25T21:11:22.125Z,5.20
2022-12-25T21:13:50.297Z,5.20
2022-12-25T21:16:22.350Z,5.30
2022-12-25T21:18:53.302Z,5.30
2022-12-25T21:21:21.860Z,5.20
2022-12-25T21:23:49.380Z,5.20
2022-12-25T21:26:20.502Z,5.30
2022-12-25T21:28:51.025Z,5.20
2022-12-25T21:31:19.068Z,5.20
2022-12-25T21:33:53.120Z,5.30
2022-12-25T21:36:29.229Z,5.30
2022-12-25T21:39:08.231Z,5.30
2022-12-25T21:41:38.717Z,5.40
2022-12-25T21:44:07.606Z,5.40
2022-12-25T21:46:35.327Z,5.40
2022-12-25T21:49:03.370Z,5.50
2022-12-25T21:51:52.208Z,5.50
2022-12-25T21:54:22.280Z,5.60
2022-12-25T21:56:50.471Z,5.60
2022-12-25T21:59:22.434Z,5.60
2022-12-25T22:01:52.141Z,5.60
2022-12-25T22:04:23.084Z,5.60
2022-12-25T22:07:09.381Z,5.70
2022-12-25T22:09:37.418Z,5.60
2022-12-25T22:12:26.169Z,5.60
2022-12-25T22:15:03.087Z,5.60
2022-12-25T22:17:53.426Z,5.60
2022-12-25T22:20:36.230Z,5.50
2022-12-25T22:23:04.878Z,5.50
2022-12-25T22:25:32.383Z,5.60
2022-12-25T22:28:00.404Z,5.60
2022-12-25T22:30:29.754Z,5.60
2022-12-25T22:32:57.781Z,5.60
2022-12-25T22:35:25.536Z,5.60
2022-12-25T22:37:54.283Z,5.60
2022-12-25T22:40:22.005Z,5.60
2022-12-25T22:42:49.490Z,5.70
2022-12-25T22:45:17.166Z,5.60
2022-12-25T22:47:44.688Z,5.60
2022-12-25T22:50:17.226Z,5.60
2022-12-25T22:52:45.911Z,5.60
2022-12-25T22:55:18.488Z,5.60
2022-12-25T22:57:46.107Z,5.60
2022-12-25T23:00:14.444Z,5.60
2022-12-25T23:02:42.069Z,5.60
2022-12-25T23:05:09.911Z,5.60
2022-12-25T23:07:37.600Z,5.60
2022-12-25T23:10:07.034Z,5.60
2022-12-25T23:12:53.242Z,5.70
2022-12-25T23:15:21.414Z,5.80
2022-12-25T23:18:07.512Z,5.80
2022-12-25T23:21:06.206Z,5.80
2022-12-25T23:23:52.353Z,5.80
2022-12-25T23:26:21.934Z,5.90
2022-12-25T23:29:07.911Z,5.90
2022-12-25T23:31:41.814Z,5.90
2022-12-25T23:34:10.240Z,6.00
2022-12-25T23:36:37.673Z,5.90
2022-12-25T23:39:10.040Z,5.90
2022-12-25T23:41:40.104Z,5.90
2022-12-25T23:44:09.735Z,5.90
2022-12-25T23:46:37.699Z,5.90
2022-12-25T23:49:05.558Z,5.90
2022-12-25T23:51:35.485Z,5.90
2022-12-25T23:54:05.479Z,5.90
2022-12-25T23:56:33.301Z,5.90
2022-12-25T23:59:00.947Z,5.90
